createdAt,value
2022-12-23T00:00:34.627Z,35.40
2022-12-23T00:01:36.508Z,37.80
2022-12-23T00:02:38.679Z,35.20
2022-12-23T00:03:40.812Z,36.63
2022-12-23T00:04:42.574Z,34.80
2022-12-23T00:05:44.573Z,36.03
2022-12-23T00:06:46.249Z,37.45
2022-12-23T00:07:47.910Z,37.17
2022-12-23T00:08:49.680Z,35.83
2022-12-23T00:09:51.463Z,35.67
2022-12-23T00:10:55.834Z,34.47
2022-12-23T00:11:57.487Z,34.40
2022-12-23T00:12:59.180Z,33.78
2022-12-23T00:14:00.861Z,33.72
2022-12-23T00:15:02.563Z,34.38
2022-12-23T00:16:06.161Z,34.47
2022-12-23T00:17:21.530Z,37.30
2022-12-23T00:18:24.591Z,36.92
2022-12-23T00:19:26.329Z,38.70
2022-12-23T00:20:28.053Z,36.00
2022-12-23T00:21:29.983Z,34.78
2022-12-23T00:22:31.987Z,36.07
2022-12-23T00:23:35.420Z,33.50
2022-12-23T00:24:37.092Z,32.33
2022-12-23T00:25:42.187Z,33.13
2022-12-23T00:26:44.162Z,30.92
2022-12-23T00:27:47.968Z,31.10
2022-12-23T00:28:50.558Z,33.95
2022-12-23T00:29:52.226Z,34.30
2022-12-23T00:31:05.627Z,33.13
2022-12-23T00:32:07.488Z,30.58
2022-12-23T00:33:09.208Z,30.97
2022-12-23T00:34:11.723Z,32.17
2022-12-23T00:35:13.413Z,28.77
2022-12-23T00:36:35.410Z,29.35
2022-12-23T00:37:37.132Z,28.95
2022-12-23T00:38:39.052Z,28.45
2022-12-23T00:39:40.729Z,29.10
2022-12-23T00:40:42.792Z,29.42
2022-12-23T00:41:45.095Z,29.80
2022-12-23T00:42:46.923Z,30.30
2022-12-23T00:43:48.691Z,29.83
2022-12-23T00:44:50.459Z,26.70
2022-12-23T00:45:52.302Z,27.65
2022-12-23T00:46:54.311Z,25.70
2022-12-23T00:47:56.020Z,26.30
2022-12-23T00:48:57.960Z,27.50
2022-12-23T00:49:59.609Z,29.02
2022-12-23T00:51:01.285Z,26.65
2022-12-23T00:52:05.412Z,26.73
2022-12-23T00:53:07.164Z,30.52
2022-12-23T00:54:08.918Z,30.47
2022-12-23T00:55:10.579Z,32.72
2022-12-23T00:56:12.222Z,31.48
2022-12-23T00:57:13.971Z,34.00
2022-12-23T00:58:16.792Z,34.25
2022-12-23T00:59:18.536Z,32.53
2022-12-23T01:00:20.817Z,33.28
2022-12-23T01:01:22.666Z,33.95
2022-12-23T01:02:24.588Z,35.20
2022-12-23T01:03:26.436Z,33.50
2022-12-23T01:04:28.302Z,36.27
2022-12-23T01:05:30.084Z,35.63
2022-12-23T01:06:31.815Z,36.90
2022-12-23T01:07:33.547Z,36.78
2022-12-23T01:08:35.356Z,36.45
2022-12-23T01:09:37.129Z,36.70
2022-12-23T01:10:40.589Z,36.95
2022-12-23T01:11:42.794Z,38.92
2022-12-23T01:12:44.469Z,39.72
2022-12-23T01:13:46.137Z,38.60
2022-12-23T01:14:48.388Z,38.87
2022-12-23T01:15:50.023Z,38.08
2022-12-23T01:16:51.774Z,36.30
2022-12-23T01:17:53.533Z,34.75
2022-12-23T01:18:55.266Z,35.53
2022-12-23T01:19:57.019Z,35.83
2022-12-23T01:21:05.533Z,36.42
2022-12-23T01:22:07.216Z,37.53
2022-12-23T01:23:08.878Z,35.03
2022-12-23T01:24:10.582Z,34.50
2022-12-23T01:25:12.386Z,34.77
2022-12-23T01:26:14.074Z,36.67
2022-12-23T01:27:15.848Z,35.42
2022-12-23T01:28:17.535Z,36.35
2022-12-23T01:29:19.243Z,35.47
2022-12-23T01:30:21.054Z,34.75
2022-12-23T01:31:23.864Z,37.78
2022-12-23T01:32:25.609Z,40.00
2022-12-23T01:33:27.609Z,35.72
2022-12-23T01:34:36.023Z,38.30
2022-12-23T01:35:38.368Z,38.13
2022-12-23T01:36:40.018Z,42.90
2022-12-23T01:37:41.850Z,42.45
2022-12-23T01:38:43.599Z,44.05
2022-12-23T01:39:45.369Z,45.05
2022-12-23T01:40:47.160Z,41.63
2022-12-23T01:41:48.890Z,45.03
2022-12-23T01:42:50.676Z,44.38
2022-12-23T01:43:52.593Z,41.85
2022-12-23T01:45:41.216Z,42.15
2022-12-23T01:46:43.120Z,39.57
2022-12-23T01:47:57.860Z,42.30
2022-12-23T01:48:59.579Z,40.72
2022-12-23T01:50:16.889Z,40.80
2022-12-23T01:51:36.632Z,39.15
2022-12-23T01:52:44.600Z,36.60
2022-12-23T01:53:52.420Z,36.38
2022-12-23T01:54:55.303Z,34.95
2022-12-23T01:56:17.129Z,36.53
2022-12-23T01:57:18.851Z,34.28
2022-12-23T01:58:30.622Z,36.10
2022-12-23T01:59:32.776Z,35.70
2022-12-23T02:00:35.434Z,35.72
2022-12-23T02:01:37.361Z,36.15
2022-12-23T02:02:42.594Z,39.03
2022-12-23T02:03:46.222Z,37.80
2022-12-23T02:04:50.010Z,33.53
2022-12-23T02:05:53.242Z,34.35
2022-12-23T02:06:55.207Z,33.85
2022-12-23T02:07:57.195Z,30.08
2022-12-23T02:08:58.914Z,28.53
2022-12-23T02:10:00.828Z,28.02
2022-12-23T02:11:39.022Z,28.88
2022-12-23T02:13:05.480Z,28.00
2022-12-23T02:14:31.730Z,30.20
2022-12-23T02:15:50.621Z,26.80
2022-12-23T02:17:09.289Z,27.90
2022-12-23T02:18:22.811Z,32.22
2022-12-23T02:19:56.892Z,33.50
2022-12-23T02:21:29.494Z,32.88
2022-12-23T02:22:52.297Z,29.13
2022-12-23T02:24:03.244Z,28.75
2022-12-23T02:25:23.472Z,29.45
2022-12-23T02:26:52.522Z,29.23
2022-12-23T02:28:15.395Z,31.75
2022-12-23T02:29:58.847Z,33.10
2022-12-23T02:31:21.956Z,34.63
2022-12-23T02:32:36.759Z,35.38
2022-12-23T02:34:02.632Z,37.53
2022-12-23T02:35:18.551Z,39.20
2022-12-23T02:36:30.827Z,40.40
2022-12-23T02:37:35.580Z,41.97
2022-12-23T02:38:56.886Z,43.92
2022-12-23T02:40:02.869Z,44.90
2022-12-23T02:41:07.623Z,45.85
2022-12-23T02:44:35.917Z,43.67
2022-12-23T02:45:54.728Z,47.17
2022-12-23T02:47:29.461Z,45.53
2022-12-23T02:48:34.010Z,42.30
2022-12-23T02:49:40.841Z,45.43
2022-12-23T02:50:46.101Z,44.60
2022-12-23T02:51:52.666Z,44.83
2022-12-23T02:52:58.750Z,45.08
2022-12-23T02:54:06.058Z,46.20
2022-12-23T02:55:16.806Z,42.85
2022-12-23T02:56:20.522Z,43.88
2022-12-23T02:57:36.784Z,41.78
2022-12-23T02:58:47.513Z,44.90
2022-12-23T02:59:52.197Z,42.13
2022-12-23T03:00:55.569Z,42.77
2022-12-23T03:01:58.610Z,43.80
2022-12-23T03:03:00.492Z,42.38
2022-12-23T03:04:02.605Z,42.80
2022-12-23T03:05:04.725Z,45.35
2022-12-23T03:06:21.050Z,42.72
2022-12-23T03:07:39.097Z,43.67
2022-12-23T03:08:43.911Z,43.67
2022-12-23T03:10:13.776Z,42.40
2022-12-23T03:11:17.463Z,40.10
2022-12-23T03:12:31.266Z,46.63
2022-12-23T03:13:38.589Z,42.60
2022-12-23T03:14:49.101Z,44.75
2022-12-23T03:16:21.685Z,44.10
2022-12-23T03:17:35.176Z,40.30
2022-12-23T03:18:57.456Z,44.20
2022-12-23T03:20:07.905Z,48.78
2022-12-23T03:21:17.561Z,52.42
2022-12-23T03:22:35.793Z,50.05
2022-12-23T03:24:03.879Z,48.55
2022-12-23T03:25:27.027Z,52.40
2022-12-23T03:26:51.112Z,47.97
2022-12-23T03:27:55.416Z,39.35
2022-12-23T03:29:03.838Z,41.95
2022-12-23T03:30:09.195Z,43.08
2022-12-23T03:31:17.304Z,42.50
2022-12-23T03:32:22.354Z,47.45
2022-12-23T03:33:37.344Z,46.17
2022-12-23T03:34:43.296Z,42.60
2022-12-23T03:35:55.655Z,39.88
2022-12-23T03:37:01.149Z,42.20
2022-12-23T03:38:04.192Z,40.03
2022-12-23T03:39:09.812Z,41.53
2022-12-23T03:40:28.267Z,40.00
2022-12-23T03:41:42.669Z,39.20
2022-12-23T03:42:48.523Z,37.22
2022-12-23T03:43:56.585Z,39.30
2022-12-23T03:45:36.943Z,39.75
2022-12-23T03:46:31.063Z,39.72
2022-12-23T03:47:39.364Z,39.78
2022-12-23T03:48:47.717Z,36.37
2022-12-23T03:49:55.661Z,39.08
2022-12-23T03:51:03.099Z,40.97
2022-12-23T03:52:22.033Z,39.28
2022-12-23T03:53:31.158Z,38.45
2022-12-23T03:54:40.613Z,37.63
2022-12-23T03:55:52.162Z,39.30
2022-12-23T03:57:13.623Z,37.35
2022-12-23T03:58:45.822Z,39.05
2022-12-23T03:59:49.881Z,35.55
2022-12-23T04:01:04.921Z,37.27
2022-12-23T04:02:33.131Z,36.92
2022-12-23T04:04:03.864Z,37.78
2022-12-23T04:05:27.655Z,36.33
2022-12-23T04:06:38.435Z,39.05
2022-12-23T04:07:54.816Z,38.17
2022-12-23T04:08:57.418Z,39.28
2022-12-23T04:10:00.244Z,37.25
2022-12-23T04:11:02.964Z,42.05
2022-12-23T04:12:05.326Z,40.47
2022-12-23T04:13:07.693Z,43.37
2022-12-23T04:14:09.441Z,41.17
2022-12-23T04:15:13.268Z,42.35
2022-12-23T04:16:15.916Z,42.72
2022-12-23T04:17:18.936Z,43.90
2022-12-23T04:18:20.826Z,44.47
2022-12-23T04:19:22.646Z,45.05
2022-12-23T04:20:24.808Z,43.65
2022-12-23T04:21:26.659Z,43.65
2022-12-23T04:22:28.313Z,45.05
2022-12-23T04:23:30.035Z,42.70
2022-12-23T04:24:31.738Z,43.53
2022-12-23T04:25:33.487Z,43.47
2022-12-23T04:26:35.278Z,41.47
2022-12-23T04:27:37.312Z,43.15
2022-12-23T04:28:39.065Z,45.83
2022-12-23T04:29:40.847Z,44.80
2022-12-23T04:30:42.705Z,42.60
2022-12-23T04:31:44.506Z,45.20
2022-12-23T04:32:46.304Z,43.55
2022-12-23T04:33:48.036Z,46.17
2022-12-23T04:34:49.721Z,45.53
2022-12-23T04:35:51.444Z,44.22
2022-12-23T04:36:53.420Z,47.35
2022-12-23T04:37:55.275Z,45.60
2022-12-23T04:38:57.022Z,44.33
2022-12-23T04:39:58.670Z,45.30
2022-12-23T04:41:00.392Z,48.30
2022-12-23T04:42:02.105Z,47.15
2022-12-23T04:43:03.880Z,43.50
2022-12-23T04:44:06.117Z,42.53
2022-12-23T04:45:08.384Z,43.45
2022-12-23T04:46:10.152Z,43.78
2022-12-23T04:47:12.011Z,40.90
2022-12-23T04:48:13.722Z,41.83
2022-12-23T04:49:15.456Z,42.03
2022-12-23T04:50:17.269Z,42.42
2022-12-23T04:51:19.141Z,42.75
2022-12-23T04:52:20.898Z,42.78
2022-12-23T04:53:22.794Z,40.67
2022-12-23T04:54:24.537Z,40.10
2022-12-23T04:55:26.320Z,39.10
2022-12-23T04:56:28.084Z,40.30
2022-12-23T04:57:29.796Z,39.63
2022-12-23T04:58:31.471Z,38.47
2022-12-23T04:59:33.941Z,37.85
2022-12-23T05:00:39.550Z,38.67
2022-12-23T05:01:42.093Z,38.58
2022-12-23T05:02:44.206Z,38.03
2022-12-23T05:03:46.765Z,38.33
2022-12-23T05:04:48.590Z,40.27
2022-12-23T05:05:50.259Z,41.47
2022-12-23T05:06:52.018Z,39.45
2022-12-23T05:08:03.629Z,39.88
2022-12-23T05:09:06.113Z,41.28
2022-12-23T05:10:08.758Z,39.97
2022-12-23T05:11:10.486Z,38.85
2022-12-23T05:12:12.517Z,39.42
2022-12-23T05:13:14.238Z,38.97
2022-12-23T05:14:15.866Z,39.85
2022-12-23T05:15:17.619Z,39.50
2022-12-23T05:16:19.495Z,38.45
2022-12-23T05:17:21.354Z,38.45
2022-12-23T05:18:23.121Z,37.42
2022-12-23T05:19:24.806Z,36.60
2022-12-23T05:20:26.550Z,37.22
2022-12-23T05:21:28.222Z,40.38
2022-12-23T05:22:29.907Z,37.42
2022-12-23T05:23:31.630Z,38.20
2022-12-23T05:24:33.328Z,37.55
2022-12-23T05:25:38.737Z,37.03
2022-12-23T05:26:41.400Z,37.58
2022-12-23T05:27:45.551Z,37.85
2022-12-23T05:28:47.350Z,38.60
2022-12-23T05:29:48.967Z,38.67
2022-12-23T05:30:58.736Z,36.20
2022-12-23T05:32:00.427Z,37.45
2022-12-23T05:33:02.124Z,36.63
2022-12-23T05:34:06.679Z,38.65
2022-12-23T05:35:09.234Z,36.58
2022-12-23T05:36:12.280Z,35.57
2022-12-23T05:37:14.004Z,37.63
2022-12-23T05:38:15.667Z,38.60
2022-12-23T05:39:17.362Z,36.78
2022-12-23T05:40:23.551Z,38.38
2022-12-23T05:41:28.286Z,35.97
2022-12-23T05:42:29.944Z,40.15
2022-12-23T05:43:32.025Z,37.95
2022-12-23T05:44:33.784Z,40.65
2022-12-23T05:45:36.617Z,38.05
2022-12-23T05:46:38.466Z,40.47
2022-12-23T05:47:40.188Z,38.95
2022-12-23T05:48:42.659Z,38.13
2022-12-23T05:49:44.358Z,39.88
2022-12-23T05:50:48.801Z,40.55
2022-12-23T05:51:50.645Z,40.55
2022-12-23T05:52:55.462Z,40.40
2022-12-23T05:53:57.405Z,37.47
2022-12-23T05:54:59.282Z,39.15
2022-12-23T05:56:04.701Z,40.08
2022-12-23T05:57:06.555Z,39.43
2022-12-23T05:58:08.251Z,38.92
2022-12-23T05:59:09.948Z,38.67
2022-12-23T06:00:12.132Z,44.08
2022-12-23T06:01:13.889Z,40.20
2022-12-23T06:02:15.958Z,43.85
2022-12-23T06:03:17.962Z,44.97
2022-12-23T06:04:19.796Z,52.60
2022-12-23T06:05:22.235Z,54.30
2022-12-23T06:06:23.967Z,55.92
2022-12-23T06:07:25.721Z,61.43
2022-12-23T06:08:27.514Z,63.05
2022-12-23T06:09:29.260Z,57.22
2022-12-23T06:10:31.063Z,56.35
2022-12-23T06:11:32.815Z,48.33
2022-12-23T06:12:35.161Z,45.47
2022-12-23T06:13:36.942Z,42.22
2022-12-23T06:14:38.597Z,44.50
2022-12-23T06:15:40.255Z,44.10
2022-12-23T06:16:42.151Z,45.70
2022-12-23T06:17:44.132Z,44.77
2022-12-23T06:18:45.934Z,45.42
2022-12-23T06:19:47.625Z,46.03
2022-12-23T06:20:49.345Z,47.90
2022-12-23T06:21:51.071Z,43.53
2022-12-23T06:22:52.889Z,47.08
2022-12-23T06:23:54.657Z,47.30
2022-12-23T06:24:56.432Z,49.90
2022-12-23T06:25:59.819Z,50.13
2022-12-23T06:27:01.740Z,51.60
2022-12-23T06:28:03.497Z,51.50
2022-12-23T06:29:05.337Z,48.85
2022-12-23T06:30:08.163Z,51.42
2022-12-23T06:31:10.041Z,57.28
2022-12-23T06:32:12.993Z,59.85
2022-12-23T06:33:14.937Z,59.90
2022-12-23T06:34:16.731Z,61.33
2022-12-23T06:35:18.536Z,64.18
2022-12-23T06:36:20.428Z,67.60
2022-12-23T06:37:22.239Z,65.82
2022-12-23T06:38:24.088Z,65.20
2022-12-23T06:39:26.359Z,70.43
2022-12-23T06:40:28.116Z,65.50
2022-12-23T06:41:29.990Z,66.28
2022-12-23T06:42:31.662Z,63.42
2022-12-23T06:43:33.410Z,62.47
2022-12-23T06:44:35.134Z,66.15
2022-12-23T06:45:36.864Z,62.97
2022-12-23T06:46:38.715Z,61.63
2022-12-23T06:47:40.462Z,58.88
2022-12-23T06:48:42.134Z,57.87
2022-12-23T06:49:44.139Z,56.03
2022-12-23T06:50:46.063Z,55.58
2022-12-23T06:51:47.766Z,55.58
2022-12-23T06:52:49.471Z,56.20
2022-12-23T06:53:51.211Z,57.92
2022-12-23T06:54:53.024Z,56.15
2022-12-23T06:56:01.721Z,52.40
2022-12-23T06:57:03.575Z,53.95
2022-12-23T06:58:06.713Z,53.42
2022-12-23T06:59:08.452Z,53.23
2022-12-23T07:00:10.820Z,50.65
2022-12-23T07:01:12.857Z,51.97
2022-12-23T07:02:14.906Z,49.70
2022-12-23T07:03:16.978Z,46.03
2022-12-23T07:04:18.789Z,49.45
2022-12-23T07:05:20.840Z,46.40
2022-12-23T07:06:22.606Z,43.85
2022-12-23T07:07:24.365Z,52.53
2022-12-23T07:08:26.025Z,53.60
2022-12-23T07:09:27.847Z,64.33
2022-12-23T07:10:29.610Z,58.38
2022-12-23T07:11:31.368Z,61.35
2022-12-23T07:12:33.272Z,57.05
2022-12-23T07:13:35.557Z,50.60
2022-12-23T07:14:37.243Z,57.50
2022-12-23T07:15:39.867Z,44.83
2022-12-23T07:16:41.823Z,45.97
2022-12-23T07:17:43.658Z,46.85
2022-12-23T07:18:45.338Z,48.70
2022-12-23T07:19:47.173Z,49.57
2022-12-23T07:20:49.801Z,51.28
2022-12-23T07:21:51.496Z,52.63
2022-12-23T07:22:56.279Z,51.80
2022-12-23T07:23:58.061Z,53.38
2022-12-23T07:24:59.788Z,49.78
2022-12-23T07:26:01.632Z,50.45
2022-12-23T07:27:03.581Z,50.42
2022-12-23T07:28:05.418Z,51.45
2022-12-23T07:29:07.323Z,48.17
2022-12-23T07:30:09.624Z,50.47
2022-12-23T07:31:11.320Z,49.83
2022-12-23T07:32:13.331Z,48.60
2022-12-23T07:33:15.533Z,50.38
2022-12-23T07:34:17.386Z,49.38
2022-12-23T07:35:19.717Z,55.97
2022-12-23T07:36:21.502Z,52.85
2022-12-23T07:37:23.197Z,54.72
2022-12-23T07:38:24.927Z,54.20
2022-12-23T07:39:26.698Z,53.55
2022-12-23T07:40:28.355Z,54.67
2022-12-23T07:41:30.077Z,56.25
2022-12-23T07:42:47.367Z,55.45
2022-12-23T07:43:49.269Z,55.03
2022-12-23T07:44:51.043Z,61.13
2022-12-23T07:45:59.522Z,63.63
2022-12-23T07:47:01.917Z,58.97
2022-12-23T07:48:03.749Z,59.72
2022-12-23T07:49:05.777Z,56.45
2022-12-23T07:50:08.444Z,56.67
2022-12-23T07:51:10.175Z,51.23
2022-12-23T07:52:11.845Z,49.03
2022-12-23T07:53:13.617Z,49.17
2022-12-23T07:54:15.457Z,48.63
2022-12-23T07:55:17.111Z,45.97
2022-12-23T07:56:19.277Z,47.42
2022-12-23T07:57:20.952Z,47.95
2022-12-23T07:58:22.746Z,44.53
2022-12-23T07:59:27.603Z,45.42
2022-12-23T08:00:29.404Z,43.95
2022-12-23T08:01:31.229Z,42.40
2022-12-23T08:02:33.483Z,44.60
2022-12-23T08:03:35.750Z,47.40
2022-12-23T08:04:42.660Z,43.15
2022-12-23T08:05:47.669Z,39.60
2022-12-23T08:06:49.367Z,40.35
2022-12-23T08:07:52.051Z,40.88
2022-12-23T08:08:53.794Z,43.47
2022-12-23T08:09:55.578Z,41.65
2022-12-23T08:10:58.781Z,41.40
2022-12-23T08:12:00.549Z,44.07
2022-12-23T08:13:02.489Z,41.35
2022-12-23T08:14:04.240Z,42.05
2022-12-23T08:15:07.285Z,40.80
2022-12-23T08:16:10.283Z,39.58
2022-12-23T08:17:12.351Z,36.05
2022-12-23T08:18:14.072Z,36.25
2022-12-23T08:19:15.914Z,38.95
2022-12-23T08:20:17.615Z,40.20
2022-12-23T08:21:19.926Z,39.47
2022-12-23T08:22:21.847Z,40.87
2022-12-23T08:23:25.038Z,39.80
2022-12-23T08:24:27.129Z,37.75
2022-12-23T08:25:28.856Z,38.60
2022-12-23T08:26:30.507Z,39.08
2022-12-23T08:27:32.417Z,40.75
2022-12-23T08:28:35.879Z,40.58
2022-12-23T08:29:39.645Z,42.33
2022-12-23T08:30:41.502Z,41.42
2022-12-23T08:31:43.203Z,40.53
2022-12-23T08:32:45.088Z,41.17
2022-12-23T08:33:50.027Z,42.97
2022-12-23T08:34:51.779Z,48.65
2022-12-23T08:35:56.496Z,43.22
2022-12-23T08:36:58.221Z,41.50
2022-12-23T08:37:59.939Z,43.75
2022-12-23T08:39:05.004Z,42.13
2022-12-23T08:40:07.353Z,45.53
2022-12-23T08:41:14.402Z,46.95
2022-12-23T08:42:16.066Z,47.70
2022-12-23T08:43:17.753Z,56.07
2022-12-23T08:44:19.857Z,47.65
2022-12-23T08:45:21.632Z,49.95
2022-12-23T08:46:24.135Z,56.88
2022-12-23T08:47:25.888Z,54.97
2022-12-23T08:48:27.647Z,51.72
2022-12-23T08:49:29.389Z,52.42
2022-12-23T08:50:31.219Z,50.28
2022-12-23T08:51:33.619Z,49.90
2022-12-23T08:52:35.403Z,47.60
2022-12-23T08:53:39.587Z,45.60
2022-12-23T08:54:41.371Z,50.33
2022-12-23T08:55:48.793Z,47.22
2022-12-23T08:56:50.625Z,48.28
2022-12-23T08:57:52.417Z,45.10
2022-12-23T08:58:55.427Z,42.75
2022-12-23T08:59:57.157Z,40.35
2022-12-23T09:01:03.550Z,43.92
2022-12-23T09:02:06.000Z,40.22
2022-12-23T09:03:08.421Z,39.40
2022-12-23T09:04:10.228Z,39.97
2022-12-23T09:05:11.895Z,39.88
2022-12-23T09:06:24.710Z,45.58
2022-12-23T09:07:30.447Z,38.50
2022-12-23T09:08:32.285Z,38.72
2022-12-23T09:09:34.036Z,39.80
2022-12-23T09:10:41.870Z,40.63
2022-12-23T09:11:44.043Z,42.67
2022-12-23T09:12:45.791Z,41.13
2022-12-23T09:13:48.622Z,41.33
2022-12-23T09:14:50.503Z,42.23
2022-12-23T09:15:52.571Z,43.70
2022-12-23T09:16:54.361Z,41.88
2022-12-23T09:17:56.433Z,43.30
2022-12-23T09:18:58.087Z,41.85
2022-12-23T09:19:59.855Z,41.00
2022-12-23T09:21:07.575Z,39.15
2022-12-23T09:22:09.664Z,39.88
2022-12-23T09:23:11.467Z,43.60
2022-12-23T09:24:13.489Z,40.90
2022-12-23T09:25:15.462Z,43.17
2022-12-23T09:26:20.008Z,42.50
2022-12-23T09:27:21.745Z,44.72
2022-12-23T09:28:24.626Z,43.65
2022-12-23T09:29:26.372Z,40.70
2022-12-23T09:30:28.145Z,40.83
2022-12-23T09:31:36.210Z,40.85
2022-12-23T09:32:39.220Z,41.05
2022-12-23T09:33:41.068Z,40.35
2022-12-23T09:34:42.835Z,37.55
2022-12-23T09:35:45.787Z,36.67
2022-12-23T09:36:53.413Z,38.50
2022-12-23T09:37:56.991Z,38.25
2022-12-23T09:38:59.229Z,36.72
2022-12-23T09:40:01.197Z,39.53
2022-12-23T09:41:10.089Z,38.30
2022-12-23T09:42:53.020Z,38.13
2022-12-23T09:44:25.405Z,37.95
2022-12-23T09:46:22.161Z,37.97
2022-12-23T09:47:28.221Z,34.58
2022-12-23T09:48:36.094Z,37.37
2022-12-23T09:49:43.033Z,42.38
2022-12-23T09:50:45.337Z,38.63
2022-12-23T09:51:49.050Z,42.00
2022-12-23T09:53:11.829Z,43.05
2022-12-23T09:54:23.580Z,43.38
2022-12-23T09:55:46.833Z,38.97
2022-12-23T09:57:14.420Z,37.45
2022-12-23T09:58:28.937Z,40.33
2022-12-23T09:59:50.806Z,39.25
2022-12-23T10:01:06.111Z,38.27
2022-12-23T10:02:29.359Z,34.13
2022-12-23T10:03:50.364Z,32.88
2022-12-23T10:05:34.265Z,32.58
2022-12-23T10:06:38.689Z,32.15
2022-12-23T10:07:45.920Z,32.42
2022-12-23T10:08:51.877Z,35.70
2022-12-23T10:09:56.468Z,39.30
2022-12-23T10:11:10.880Z,37.95
2022-12-23T10:12:40.274Z,31.85
2022-12-23T10:14:02.562Z,31.43
2022-12-23T10:15:18.325Z,33.83
2022-12-23T10:16:26.485Z,33.75
2022-12-23T10:17:38.468Z,34.38
2022-12-23T10:18:50.543Z,34.83
2022-12-23T10:19:57.060Z,34.53
2022-12-23T10:21:12.019Z,37.45
2022-12-23T10:22:38.491Z,34.92
2022-12-23T10:23:44.171Z,35.45
2022-12-23T10:24:47.728Z,37.22
2022-12-23T10:25:51.671Z,37.90
2022-12-23T10:27:15.402Z,36.58
2022-12-23T10:28:17.335Z,37.95
2022-12-23T10:29:22.144Z,37.85
2022-12-23T10:30:54.032Z,39.70
2022-12-23T10:32:19.761Z,36.15
2022-12-23T10:33:25.381Z,34.70
2022-12-23T10:34:38.744Z,35.33
2022-12-23T10:36:05.371Z,35.25
2022-12-23T10:37:17.578Z,34.88
2022-12-23T10:38:31.586Z,40.63
2022-12-23T10:39:36.363Z,37.63
2022-12-23T10:40:54.942Z,35.65
2022-12-23T10:41:59.965Z,35.00
2022-12-23T10:43:20.816Z,34.38
2022-12-23T10:44:40.979Z,35.28
2022-12-23T10:46:01.479Z,33.65
2022-12-23T10:47:03.798Z,33.33
2022-12-23T10:48:27.754Z,37.65
2022-12-23T10:49:44.448Z,34.95
2022-12-23T10:51:10.212Z,35.43
2022-12-23T10:52:18.975Z,34.35
2022-12-23T10:53:41.146Z,35.30
2022-12-23T10:54:46.386Z,34.47
2022-12-23T10:55:50.343Z,37.97
2022-12-23T10:56:54.271Z,33.75
2022-12-23T10:58:25.593Z,35.80
2022-12-23T10:59:36.633Z,33.90
2022-12-23T11:00:52.234Z,33.97
2022-12-23T11:02:29.493Z,34.75
2022-12-23T11:03:51.903Z,34.00
2022-12-23T11:04:54.531Z,43.60
2022-12-23T11:05:57.688Z,47.03
2022-12-23T11:07:26.188Z,34.33
2022-12-23T11:08:23.093Z,34.63
2022-12-23T11:09:28.402Z,33.53
2022-12-23T11:10:33.098Z,34.42
2022-12-23T11:12:03.550Z,32.78
2022-12-23T11:13:05.507Z,30.23
2022-12-23T11:14:30.124Z,31.67
2022-12-23T11:15:40.433Z,31.03
2022-12-23T11:16:46.163Z,31.75
2022-12-23T11:18:15.987Z,31.23
2022-12-23T11:19:17.746Z,31.75
2022-12-23T11:20:19.827Z,32.05
2022-12-23T11:21:21.803Z,31.35
2022-12-23T11:22:25.594Z,34.50
2022-12-23T11:23:36.496Z,33.13
2022-12-23T11:24:43.162Z,33.22
2022-12-23T11:25:46.282Z,32.15
2022-12-23T11:26:58.535Z,79.67
2022-12-23T11:28:12.327Z,45.58
2022-12-23T11:29:40.317Z,34.22
2022-12-23T11:30:57.342Z,30.83
2022-12-23T11:32:00.386Z,32.97
2022-12-23T11:33:02.357Z,31.77
2022-12-23T11:34:37.789Z,30.85
2022-12-23T11:35:39.739Z,30.35
2022-12-23T11:36:41.835Z,31.52
2022-12-23T11:37:43.976Z,29.67
2022-12-23T11:38:51.807Z,31.67
2022-12-23T11:39:53.747Z,31.50
2022-12-23T11:40:55.964Z,30.27
2022-12-23T11:42:20.466Z,31.17
2022-12-23T11:43:24.546Z,31.50
2022-12-23T11:44:41.750Z,30.95
2022-12-23T11:45:43.690Z,35.63
2022-12-23T11:46:45.826Z,35.13
2022-12-23T11:47:47.839Z,33.28
2022-12-23T11:48:54.626Z,33.88
2022-12-23T11:50:02.441Z,34.73
2022-12-23T11:51:04.655Z,31.50
2022-12-23T11:52:06.624Z,32.58
2022-12-23T11:53:22.059Z,32.65
2022-12-23T11:54:23.891Z,32.40
2022-12-23T11:55:28.023Z,30.90
2022-12-23T11:56:40.503Z,31.45
2022-12-23T11:57:46.760Z,30.27
2022-12-23T11:58:53.862Z,30.77
2022-12-23T11:59:59.987Z,28.88
2022-12-23T12:01:08.689Z,30.10
2022-12-23T12:02:18.447Z,29.02
2022-12-23T12:03:25.007Z,30.52
2022-12-23T12:04:31.788Z,28.92
2022-12-23T12:05:38.123Z,31.08
2022-12-23T12:06:49.801Z,29.63
2022-12-23T12:08:01.130Z,29.85
2022-12-23T12:09:05.910Z,29.25
2022-12-23T12:10:18.017Z,30.70
2022-12-23T12:11:39.924Z,30.23
2022-12-23T12:12:41.709Z,30.10
2022-12-23T12:13:48.004Z,35.35
2022-12-23T12:14:52.896Z,35.78
2022-12-23T12:16:31.594Z,35.50
2022-12-23T12:17:41.152Z,35.67
2022-12-23T12:18:47.118Z,34.92
2022-12-23T12:20:16.738Z,36.85
2022-12-23T12:21:24.493Z,36.22
2022-12-23T12:22:36.438Z,38.10
2022-12-23T12:23:41.180Z,36.25
2022-12-23T12:24:53.213Z,37.13
2022-12-23T12:26:01.905Z,42.00
2022-12-23T12:27:08.390Z,39.35
2022-12-23T12:28:30.296Z,37.33
2022-12-23T12:30:08.063Z,37.35
2022-12-23T12:31:17.539Z,33.47
2022-12-23T12:32:29.448Z,35.47
2022-12-23T12:33:36.713Z,32.92
2022-12-23T12:34:58.007Z,34.88
2022-12-23T12:36:07.095Z,36.45
2022-12-23T12:37:34.196Z,35.93
2022-12-23T12:38:39.254Z,35.15
2022-12-23T12:39:49.472Z,35.78
2022-12-23T12:41:16.296Z,35.72
2022-12-23T12:42:35.350Z,36.55
2022-12-23T12:44:03.925Z,36.78
2022-12-23T12:45:16.948Z,33.67
2022-12-23T12:46:18.812Z,35.55
2022-12-23T12:47:56.629Z,33.63
2022-12-23T12:49:15.361Z,32.97
2022-12-23T12:50:30.993Z,40.53
2022-12-23T12:51:48.561Z,38.08
2022-12-23T12:52:54.071Z,37.13
2022-12-23T12:54:05.898Z,31.02
2022-12-23T12:55:11.047Z,28.45
2022-12-23T12:56:24.741Z,32.17
2022-12-23T12:57:26.886Z,34.47
2022-12-23T12:58:28.712Z,34.42
2022-12-23T12:59:36.232Z,32.80
2022-12-23T13:01:07.232Z,31.10
2022-12-23T13:02:49.660Z,30.37
2022-12-23T13:04:21.832Z,28.20
2022-12-23T13:05:49.962Z,26.35
2022-12-23T13:06:55.200Z,27.70
2022-12-23T13:08:25.069Z,28.20
2022-12-23T13:09:56.709Z,25.58
2022-12-23T13:11:28.769Z,22.63
2022-12-23T13:12:56.948Z,11.93
2022-12-23T13:14:29.902Z,15.80
2022-12-23T13:16:22.556Z,7.22
2022-12-23T13:18:00.346Z,5.70
2022-12-23T13:19:25.777Z,7.70
2022-12-23T13:21:01.755Z,7.13
2022-12-23T13:22:09.774Z,6.70
2022-12-23T13:23:48.910Z,7.18
2022-12-23T13:25:05.832Z,5.40
2022-12-23T13:26:23.771Z,5.78
2022-12-23T13:27:52.255Z,5.93
2022-12-23T13:29:02.337Z,6.10
2022-12-23T13:30:12.230Z,5.72
2022-12-23T13:31:26.553Z,6.17
2022-12-23T13:32:46.442Z,6.10
2022-12-23T13:34:32.250Z,5.90
2022-12-23T13:36:13.397Z,7.32
2022-12-23T13:37:45.948Z,7.43
2022-12-23T13:39:09.336Z,41.22
2022-12-23T13:40:26.332Z,19.30
2022-12-23T13:41:39.924Z,28.45
2022-12-23T13:42:48.442Z,37.05
2022-12-23T13:44:02.032Z,43.90
2022-12-23T13:45:06.562Z,32.97
2022-12-23T13:46:30.407Z,57.28
2022-12-23T13:48:05.087Z,34.13
2022-12-23T13:49:46.133Z,29.15
2022-12-23T13:50:58.503Z,28.95
2022-12-23T13:52:14.558Z,26.75
2022-12-23T13:53:28.169Z,28.33
2022-12-23T13:54:46.897Z,29.02
2022-12-23T13:56:14.416Z,27.90
2022-12-23T13:57:28.705Z,28.35
2022-12-23T13:58:31.993Z,28.20
2022-12-23T13:59:42.700Z,27.33
2022-12-23T14:00:45.042Z,26.85
2022-12-23T14:01:49.166Z,27.08
2022-12-23T14:02:53.497Z,27.45
2022-12-23T14:03:55.364Z,28.33
2022-12-23T14:04:59.372Z,29.35
2022-12-23T14:06:26.092Z,28.40
2022-12-23T14:07:30.844Z,27.63
2022-12-23T14:08:43.034Z,29.98
2022-12-23T14:09:57.841Z,27.57
2022-12-23T14:11:31.574Z,27.83
2022-12-23T14:12:38.194Z,27.58
2022-12-23T14:13:51.705Z,29.13
2022-12-23T14:15:39.026Z,27.58
2022-12-23T14:17:02.244Z,27.27
2022-12-23T14:18:16.139Z,47.03
2022-12-23T14:19:55.814Z,32.88
2022-12-23T14:21:20.581Z,27.60
2022-12-23T14:22:45.628Z,28.63
2022-12-23T14:24:24.820Z,27.60
2022-12-23T14:25:54.134Z,27.20
2022-12-23T14:26:58.404Z,32.72
2022-12-23T14:28:13.307Z,31.63
2022-12-23T14:29:48.476Z,28.88
2022-12-23T14:30:50.380Z,27.85
2022-12-23T14:31:57.551Z,30.73
2022-12-23T14:33:02.803Z,38.30
2022-12-23T14:34:18.124Z,39.38
2022-12-23T14:35:27.510Z,36.25
2022-12-23T14:36:29.600Z,38.10
2022-12-23T14:37:36.351Z,38.95
2022-12-23T14:38:38.655Z,49.92
2022-12-23T14:39:40.506Z,42.97